GMINJ EGTK-EGMC
Flight info
| Callsign | GMINJ |
|---|---|
| Flight time | 1h 4m |
| Altitude | 9000 |
| Route | DCT SILVA M605 WOD L9 BIG DCT DET DCT SND DCT |
| Aircraft | DA42/L-SDFGY/S |
Departure
| Time | 2026-04-22 14:55 |
|---|---|
| Airport | London Oxford Airport (EGTK) |
Arrival
| Time | 2026-04-22 15:59 |
|---|---|
| Airport | London Southend Airport (EGMC) |
| Time | Latitude | Longitude | Altitude | Speed | Heading |
|---|---|---|---|---|---|
| 2026-04-22 14:22 | 51.83233 | -1.31689 | 261 ft | 0 kts | 245° |
| 2026-04-22 14:49 | 51.83233 | -1.31690 | 261 ft | 1 kts | 244° |
| 2026-04-22 14:49 | 51.83228 | -1.31663 | 261 ft | 6 kts | 75° |
| 2026-04-22 14:49 | 51.83210 | -1.31608 | 261 ft | 8 kts | 139° |
| 2026-04-22 14:50 | 51.83142 | -1.31559 | 261 ft | 13 kts | 153° |
| 2026-04-22 14:50 | 51.83044 | -1.31536 | 261 ft | 16 kts | 201° |
| 2026-04-22 14:50 | 51.83015 | -1.31730 | 262 ft | 20 kts | 263° |
| 2026-04-22 14:50 | 51.82994 | -1.31920 | 262 ft | 11 kts | 261° |
| 2026-04-22 14:51 | 51.82984 | -1.32044 | 262 ft | 3 kts | 311° |
| 2026-04-22 14:53 | 51.83000 | -1.32151 | 262 ft | 13 kts | 294° |
| 2026-04-22 14:53 | 51.83035 | -1.32199 | 263 ft | 0 kts | 11° |
| 2026-04-22 14:53 | 51.83043 | -1.32195 | 263 ft | 13 kts | 22° |
| 2026-04-22 14:54 | 51.83136 | -1.32168 | 262 ft | 32 kts | 9° |
| 2026-04-22 14:54 | 51.83535 | -1.32042 | 268 ft | 78 kts | 20° |
| 2026-04-22 14:54 | 51.84098 | -1.31858 | 457 ft | 83 kts | 26° |
| 2026-04-22 14:54 | 51.84666 | -1.31639 | 677 ft | 87 kts | 26° |
| 2026-04-22 14:55 | 51.85238 | -1.31380 | 951 ft | 87 kts | 28° |
| 2026-04-22 14:55 | 51.85778 | -1.31068 | 1368 ft | 78 kts | 49° |
| 2026-04-22 14:55 | 51.85995 | -1.30400 | 1720 ft | 67 kts | 89° |
| 2026-04-22 14:55 | 51.85967 | -1.29724 | 2118 ft | 60 kts | 92° |
| 2026-04-22 14:56 | 51.85955 | -1.28887 | 2221 ft | 89 kts | 90° |
| 2026-04-22 14:56 | 51.85928 | -1.27886 | 2603 ft | 80 kts | 94° |
| 2026-04-22 14:56 | 51.85880 | -1.27010 | 2861 ft | 80 kts | 94° |
| 2026-04-22 14:56 | 51.85836 | -1.26116 | 3102 ft | 79 kts | 93° |
| 2026-04-22 14:57 | 51.85794 | -1.25220 | 3389 ft | 79 kts | 93° |
| 2026-04-22 14:57 | 51.85756 | -1.24323 | 3627 ft | 82 kts | 93° |
| 2026-04-22 14:57 | 51.85717 | -1.23430 | 3896 ft | 80 kts | 93° |
| 2026-04-22 14:57 | 51.85679 | -1.22514 | 4167 ft | 83 kts | 95° |
| 2026-04-22 14:58 | 51.85639 | -1.21580 | 4404 ft | 82 kts | 95° |
| 2026-04-22 14:58 | 51.85602 | -1.20667 | 4655 ft | 81 kts | 97° |
| 2026-04-22 14:58 | 51.85563 | -1.19748 | 4920 ft | 82 kts | 97° |
| 2026-04-22 14:58 | 51.85525 | -1.18830 | 5148 ft | 82 kts | 98° |
| 2026-04-22 14:59 | 51.85488 | -1.17901 | 5376 ft | 83 kts | 99° |
| 2026-04-22 14:59 | 51.85449 | -1.16975 | 5604 ft | 83 kts | 99° |
| 2026-04-22 14:59 | 51.85412 | -1.16035 | 5843 ft | 84 kts | 99° |
| 2026-04-22 14:59 | 51.85406 | -1.15902 | 5881 ft | 84 kts | 99° |
| 2026-04-22 15:00 | 51.85391 | -1.15558 | 5970 ft | 84 kts | 100° |
| 2026-04-22 15:00 | 51.85351 | -1.14602 | 6215 ft | 85 kts | 100° |
| 2026-04-22 15:00 | 51.85311 | -1.13659 | 6459 ft | 86 kts | 100° |
| 2026-04-22 15:00 | 51.85271 | -1.12682 | 6688 ft | 87 kts | 101° |
| 2026-04-22 15:01 | 51.85230 | -1.11706 | 6929 ft | 87 kts | 101° |
| 2026-04-22 15:01 | 51.85188 | -1.10712 | 7134 ft | 90 kts | 100° |
| 2026-04-22 15:01 | 51.85147 | -1.09710 | 7396 ft | 89 kts | 100° |
| 2026-04-22 15:01 | 51.85104 | -1.08700 | 7606 ft | 91 kts | 100° |
| 2026-04-22 15:02 | 51.85062 | -1.07684 | 7837 ft | 91 kts | 101° |
| 2026-04-22 15:02 | 51.85019 | -1.06664 | 8072 ft | 92 kts | 101° |
| 2026-04-22 15:02 | 51.84976 | -1.05640 | 8323 ft | 92 kts | 101° |
| 2026-04-22 15:02 | 51.84932 | -1.04610 | 8572 ft | 92 kts | 102° |
| 2026-04-22 15:03 | 51.84888 | -1.03565 | 8791 ft | 95 kts | 101° |
| 2026-04-22 15:03 | 51.84830 | -1.02510 | 9043 ft | 93 kts | 107° |
| 2026-04-22 15:03 | 51.84604 | -1.01541 | 9248 ft | 95 kts | 122° |
| 2026-04-22 15:03 | 51.84156 | -1.00696 | 9333 ft | 107 kts | 139° |
| 2026-04-22 15:04 | 51.83442 | -1.00115 | 9333 ft | 123 kts | 160° |
| 2026-04-22 15:04 | 51.82564 | -0.99819 | 9329 ft | 132 kts | 163° |
| 2026-04-22 15:04 | 51.81651 | -0.99529 | 9325 ft | 139 kts | 163° |
| 2026-04-22 15:04 | 51.80689 | -0.99221 | 9324 ft | 141 kts | 163° |
| 2026-04-22 15:05 | 51.79724 | -0.98914 | 9312 ft | 140 kts | 162° |
| 2026-04-22 15:05 | 51.78770 | -0.98606 | 9304 ft | 139 kts | 162° |
| 2026-04-22 15:05 | 51.77828 | -0.98303 | 9306 ft | 137 kts | 162° |
| 2026-04-22 15:05 | 51.76897 | -0.98002 | 9307 ft | 136 kts | 162° |
| 2026-04-22 15:06 | 51.75966 | -0.97702 | 9302 ft | 136 kts | 162° |
| 2026-04-22 15:06 | 51.75052 | -0.97408 | 9302 ft | 135 kts | 162° |
| 2026-04-22 15:06 | 51.74131 | -0.97111 | 9301 ft | 134 kts | 162° |
| 2026-04-22 15:06 | 51.73215 | -0.96816 | 9295 ft | 135 kts | 162° |
| 2026-04-22 15:07 | 51.72292 | -0.96517 | 9293 ft | 136 kts | 162° |
| 2026-04-22 15:07 | 51.71363 | -0.96218 | 9294 ft | 136 kts | 162° |
| 2026-04-22 15:07 | 51.70449 | -0.95926 | 9292 ft | 135 kts | 162° |
| 2026-04-22 15:07 | 51.69530 | -0.95631 | 9294 ft | 135 kts | 162° |
| 2026-04-22 15:08 | 51.68610 | -0.95334 | 9289 ft | 135 kts | 162° |
| 2026-04-22 15:08 | 51.67688 | -0.95039 | 9293 ft | 135 kts | 162° |
| 2026-04-22 15:08 | 51.66759 | -0.94741 | 9290 ft | 136 kts | 163° |
| 2026-04-22 15:08 | 51.65824 | -0.94441 | 9292 ft | 137 kts | 163° |
| 2026-04-22 15:09 | 51.64887 | -0.94140 | 9286 ft | 137 kts | 163° |
| 2026-04-22 15:09 | 51.63946 | -0.93838 | 9288 ft | 138 kts | 163° |
| 2026-04-22 15:09 | 51.63007 | -0.93537 | 9317 ft | 138 kts | 163° |
| 2026-04-22 15:09 | 51.62061 | -0.93234 | 9312 ft | 138 kts | 163° |
| 2026-04-22 15:10 | 51.61131 | -0.92935 | 9310 ft | 138 kts | 162° |
| 2026-04-22 15:10 | 51.60195 | -0.92637 | 9310 ft | 137 kts | 162° |
| 2026-04-22 15:10 | 51.59261 | -0.92340 | 9309 ft | 136 kts | 162° |
| 2026-04-22 15:10 | 51.58329 | -0.92041 | 9311 ft | 137 kts | 162° |
| 2026-04-22 15:11 | 51.57390 | -0.91739 | 9314 ft | 138 kts | 162° |
| 2026-04-22 15:11 | 51.56441 | -0.91436 | 9320 ft | 139 kts | 162° |
| 2026-04-22 15:11 | 51.55493 | -0.91133 | 9318 ft | 139 kts | 162° |
| 2026-04-22 15:11 | 51.54546 | -0.90832 | 9322 ft | 139 kts | 162° |
| 2026-04-22 15:12 | 51.53598 | -0.90531 | 9318 ft | 138 kts | 162° |
| 2026-04-22 15:12 | 51.52654 | -0.90229 | 9316 ft | 138 kts | 162° |
| 2026-04-22 15:12 | 51.51728 | -0.89934 | 9314 ft | 137 kts | 162° |
| 2026-04-22 15:12 | 51.50790 | -0.89635 | 9312 ft | 137 kts | 162° |
| 2026-04-22 15:13 | 51.49854 | -0.89336 | 9310 ft | 136 kts | 161° |
| 2026-04-22 15:13 | 51.48924 | -0.89040 | 9311 ft | 136 kts | 161° |
| 2026-04-22 15:13 | 51.47996 | -0.88745 | 9310 ft | 136 kts | 161° |
| 2026-04-22 15:13 | 51.47072 | -0.88444 | 9312 ft | 134 kts | 158° |
| 2026-04-22 15:14 | 51.46228 | -0.87863 | 9315 ft | 130 kts | 143° |
| 2026-04-22 15:14 | 51.45548 | -0.86928 | 9313 ft | 128 kts | 129° |
| 2026-04-22 15:14 | 51.45071 | -0.85727 | 9315 ft | 128 kts | 115° |
| 2026-04-22 15:14 | 51.44823 | -0.84363 | 9317 ft | 130 kts | 105° |
| 2026-04-22 15:15 | 51.44638 | -0.82944 | 9315 ft | 130 kts | 104° |
| 2026-04-22 15:15 | 51.44452 | -0.81511 | 9311 ft | 131 kts | 104° |
| 2026-04-22 15:15 | 51.44268 | -0.80084 | 9315 ft | 131 kts | 105° |
| 2026-04-22 15:15 | 51.44081 | -0.78646 | 9313 ft | 131 kts | 104° |
| 2026-04-22 15:16 | 51.43895 | -0.77216 | 9312 ft | 130 kts | 105° |
| 2026-04-22 15:16 | 51.43712 | -0.75817 | 9314 ft | 130 kts | 105° |
| 2026-04-22 15:16 | 51.43528 | -0.74398 | 9313 ft | 129 kts | 105° |
| 2026-04-22 15:16 | 51.43342 | -0.72979 | 9316 ft | 130 kts | 105° |
| 2026-04-22 15:17 | 51.43158 | -0.71565 | 9314 ft | 130 kts | 105° |
| 2026-04-22 15:17 | 51.43070 | -0.70894 | 9315 ft | 129 kts | 105° |
| 2026-04-22 15:17 | 51.42884 | -0.69471 | 9316 ft | 131 kts | 105° |
| 2026-04-22 15:17 | 51.42698 | -0.68050 | 9314 ft | 130 kts | 105° |
| 2026-04-22 15:18 | 51.42513 | -0.66639 | 9313 ft | 129 kts | 105° |
| 2026-04-22 15:18 | 51.42329 | -0.65242 | 9316 ft | 130 kts | 105° |
| 2026-04-22 15:18 | 51.42140 | -0.63809 | 9317 ft | 132 kts | 105° |
| 2026-04-22 15:18 | 51.41952 | -0.62368 | 9319 ft | 132 kts | 105° |
| 2026-04-22 15:19 | 51.41762 | -0.60927 | 9315 ft | 132 kts | 105° |
| 2026-04-22 15:19 | 51.41573 | -0.59497 | 9319 ft | 131 kts | 105° |
| 2026-04-22 15:19 | 51.41388 | -0.58089 | 9316 ft | 130 kts | 105° |
| 2026-04-22 15:19 | 51.41198 | -0.56660 | 9280 ft | 136 kts | 103° |
| 2026-04-22 15:20 | 51.41067 | -0.55657 | 9322 ft | 133 kts | 104° |
| 2026-04-22 15:20 | 51.40811 | -0.53728 | 9316 ft | 134 kts | 105° |
| 2026-04-22 15:20 | 51.40619 | -0.52276 | 9317 ft | 132 kts | 105° |
| 2026-04-22 15:20 | 51.40429 | -0.50840 | 9318 ft | 132 kts | 105° |
| 2026-04-22 15:21 | 51.40239 | -0.49411 | 9318 ft | 131 kts | 105° |
| 2026-04-22 15:21 | 51.40052 | -0.48002 | 9319 ft | 131 kts | 105° |
| 2026-04-22 15:21 | 51.39861 | -0.46568 | 9316 ft | 131 kts | 105° |
| 2026-04-22 15:21 | 51.39670 | -0.45134 | 9318 ft | 132 kts | 105° |
| 2026-04-22 15:22 | 51.39482 | -0.43714 | 9320 ft | 132 kts | 105° |
| 2026-04-22 15:22 | 51.39289 | -0.42274 | 9316 ft | 132 kts | 105° |
| 2026-04-22 15:22 | 51.39097 | -0.40838 | 9318 ft | 132 kts | 105° |
| 2026-04-22 15:22 | 51.38906 | -0.39404 | 9317 ft | 131 kts | 105° |
| 2026-04-22 15:23 | 51.38715 | -0.37974 | 9314 ft | 131 kts | 105° |
| 2026-04-22 15:23 | 51.38526 | -0.36563 | 9312 ft | 131 kts | 105° |
| 2026-04-22 15:23 | 51.38334 | -0.35133 | 9312 ft | 131 kts | 105° |
| 2026-04-22 15:23 | 51.38143 | -0.33704 | 9313 ft | 130 kts | 105° |
| 2026-04-22 15:24 | 51.37952 | -0.32283 | 9315 ft | 130 kts | 105° |
| 2026-04-22 15:24 | 51.37762 | -0.30863 | 9314 ft | 130 kts | 105° |
| 2026-04-22 15:24 | 51.37573 | -0.29466 | 9315 ft | 130 kts | 105° |
| 2026-04-22 15:24 | 51.37379 | -0.28029 | 9313 ft | 130 kts | 105° |
| 2026-04-22 15:25 | 51.37190 | -0.26630 | 9314 ft | 130 kts | 105° |
| 2026-04-22 15:25 | 51.36998 | -0.25206 | 9314 ft | 130 kts | 105° |
| 2026-04-22 15:25 | 51.36807 | -0.23788 | 9314 ft | 130 kts | 105° |
| 2026-04-22 15:25 | 51.36616 | -0.22372 | 9317 ft | 130 kts | 106° |
| 2026-04-22 15:26 | 51.36427 | -0.20979 | 9314 ft | 130 kts | 105° |
| 2026-04-22 15:26 | 51.36236 | -0.19568 | 9313 ft | 130 kts | 106° |
| 2026-04-22 15:26 | 51.36045 | -0.18159 | 9311 ft | 129 kts | 105° |
| 2026-04-22 15:26 | 51.35854 | -0.16751 | 9314 ft | 130 kts | 105° |
| 2026-04-22 15:27 | 51.35662 | -0.15338 | 9312 ft | 129 kts | 105° |
| 2026-04-22 15:27 | 51.35472 | -0.13945 | 9313 ft | 129 kts | 105° |
| 2026-04-22 15:27 | 51.35280 | -0.12527 | 9316 ft | 129 kts | 105° |
| 2026-04-22 15:27 | 51.35088 | -0.11127 | 9317 ft | 129 kts | 105° |
| 2026-04-22 15:28 | 51.34899 | -0.09737 | 9318 ft | 130 kts | 105° |
| 2026-04-22 15:28 | 51.34706 | -0.08322 | 9318 ft | 130 kts | 105° |
| 2026-04-22 15:28 | 51.34512 | -0.06902 | 9318 ft | 131 kts | 105° |
| 2026-04-22 15:28 | 51.34318 | -0.05485 | 9316 ft | 130 kts | 105° |
| 2026-04-22 15:29 | 51.34125 | -0.04078 | 9317 ft | 130 kts | 105° |
| 2026-04-22 15:29 | 51.33930 | -0.02656 | 9319 ft | 130 kts | 105° |
| 2026-04-22 15:29 | 51.33736 | -0.01239 | 9320 ft | 130 kts | 105° |
| 2026-04-22 15:30 | 51.33414 | 0.01105 | 9345 ft | 130 kts | 104° |
| 2026-04-22 15:30 | 51.33157 | 0.02975 | 9349 ft | 128 kts | 105° |
| 2026-04-22 15:30 | 51.33045 | 0.04403 | 9344 ft | 130 kts | 98° |
| 2026-04-22 15:30 | 51.32980 | 0.05844 | 9347 ft | 129 kts | 98° |
| 2026-04-22 15:31 | 51.32914 | 0.07282 | 9347 ft | 130 kts | 97° |
| 2026-04-22 15:31 | 51.32848 | 0.08721 | 9350 ft | 131 kts | 97° |
| 2026-04-22 15:31 | 51.32782 | 0.10175 | 9419 ft | 131 kts | 98° |
| 2026-04-22 15:31 | 51.32714 | 0.11634 | 9423 ft | 131 kts | 98° |
| 2026-04-22 15:32 | 51.32649 | 0.13079 | 9429 ft | 130 kts | 98° |
| 2026-04-22 15:32 | 51.32582 | 0.14511 | 9438 ft | 129 kts | 98° |
| 2026-04-22 15:32 | 51.32515 | 0.15946 | 9443 ft | 130 kts | 98° |
| 2026-04-22 15:32 | 51.32449 | 0.17370 | 9453 ft | 131 kts | 97° |
| 2026-04-22 15:33 | 51.32380 | 0.18836 | 9458 ft | 132 kts | 97° |
| 2026-04-22 15:33 | 51.32313 | 0.20290 | 9471 ft | 130 kts | 98° |
| 2026-04-22 15:33 | 51.32246 | 0.21745 | 9472 ft | 130 kts | 98° |
| 2026-04-22 15:33 | 51.32178 | 0.23180 | 9480 ft | 129 kts | 98° |
| 2026-04-22 15:34 | 51.32107 | 0.24618 | 9480 ft | 130 kts | 98° |
| 2026-04-22 15:34 | 51.32042 | 0.26051 | 9485 ft | 129 kts | 97° |
| 2026-04-22 15:34 | 51.31974 | 0.27487 | 9489 ft | 130 kts | 98° |
| 2026-04-22 15:34 | 51.31904 | 0.28933 | 9496 ft | 130 kts | 98° |
| 2026-04-22 15:35 | 51.31859 | 0.29888 | 9501 ft | 130 kts | 97° |
| 2026-04-22 15:35 | 51.31769 | 0.31800 | 9509 ft | 129 kts | 98° |
| 2026-04-22 15:35 | 51.31699 | 0.33242 | 9514 ft | 131 kts | 98° |
| 2026-04-22 15:35 | 51.31630 | 0.34698 | 9518 ft | 132 kts | 97° |
| 2026-04-22 15:36 | 51.31559 | 0.36168 | 9521 ft | 133 kts | 98° |
| 2026-04-22 15:36 | 51.31488 | 0.37640 | 9521 ft | 132 kts | 98° |
| 2026-04-22 15:36 | 51.31418 | 0.39104 | 9528 ft | 132 kts | 98° |
| 2026-04-22 15:36 | 51.31347 | 0.40569 | 9529 ft | 131 kts | 98° |
| 2026-04-22 15:37 | 51.31275 | 0.42024 | 9527 ft | 131 kts | 98° |
| 2026-04-22 15:37 | 51.31205 | 0.43476 | 9526 ft | 131 kts | 97° |
| 2026-04-22 15:37 | 51.31134 | 0.44933 | 9527 ft | 131 kts | 98° |
| 2026-04-22 15:37 | 51.31063 | 0.46390 | 9526 ft | 131 kts | 98° |
| 2026-04-22 15:38 | 51.30991 | 0.47841 | 9525 ft | 130 kts | 98° |
| 2026-04-22 15:38 | 51.30847 | 0.50744 | 9235 ft | 132 kts | 98° |
| 2026-04-22 15:38 | 51.30775 | 0.52203 | 9053 ft | 132 kts | 97° |
| 2026-04-22 15:39 | 51.30702 | 0.53672 | 8870 ft | 132 kts | 97° |
| 2026-04-22 15:39 | 51.30629 | 0.55130 | 8675 ft | 132 kts | 97° |
| 2026-04-22 15:39 | 51.30640 | 0.56595 | 8470 ft | 133 kts | 86° |
| 2026-04-22 15:39 | 51.30799 | 0.57571 | 8331 ft | 136 kts | 76° |
| 2026-04-22 15:40 | 51.31262 | 0.58903 | 8123 ft | 142 kts | 60° |
| 2026-04-22 15:40 | 51.31995 | 0.59999 | 7938 ft | 147 kts | 44° |
| 2026-04-22 15:40 | 51.32948 | 0.60686 | 7616 ft | 154 kts | 24° |
| 2026-04-22 15:40 | 51.33996 | 0.61087 | 7435 ft | 155 kts | 24° |
| 2026-04-22 15:41 | 51.35047 | 0.61481 | 7259 ft | 155 kts | 21° |
| 2026-04-22 15:41 | 51.36101 | 0.61876 | 7064 ft | 156 kts | 21° |
| 2026-04-22 15:41 | 51.37159 | 0.62274 | 6871 ft | 156 kts | 21° |
| 2026-04-22 15:41 | 51.38204 | 0.62664 | 6677 ft | 156 kts | 21° |
| 2026-04-22 15:42 | 51.39264 | 0.63063 | 6468 ft | 156 kts | 24° |
| 2026-04-22 15:42 | 51.40316 | 0.63462 | 6262 ft | 155 kts | 24° |
| 2026-04-22 15:42 | 51.41358 | 0.63854 | 6059 ft | 153 kts | 22° |
| 2026-04-22 15:42 | 51.42395 | 0.64247 | 5853 ft | 152 kts | 24° |
| 2026-04-22 15:43 | 51.43411 | 0.64630 | 5655 ft | 151 kts | 24° |
| 2026-04-22 15:43 | 51.44433 | 0.65018 | 5453 ft | 150 kts | 24° |
| 2026-04-22 15:43 | 51.45446 | 0.65402 | 5255 ft | 149 kts | 24° |
| 2026-04-22 15:43 | 51.46459 | 0.65783 | 5050 ft | 148 kts | 24° |
| 2026-04-22 15:44 | 51.47458 | 0.66161 | 4854 ft | 146 kts | 25° |
| 2026-04-22 15:44 | 51.48452 | 0.66539 | 4615 ft | 147 kts | 25° |
| 2026-04-22 15:44 | 51.49432 | 0.66912 | 4361 ft | 146 kts | 23° |
| 2026-04-22 15:44 | 51.50419 | 0.67287 | 4106 ft | 145 kts | 24° |
| 2026-04-22 15:45 | 51.51394 | 0.67654 | 3848 ft | 139 kts | 24° |
| 2026-04-22 15:45 | 51.52270 | 0.67977 | 3589 ft | 120 kts | 27° |
| 2026-04-22 15:45 | 51.53048 | 0.68271 | 3337 ft | 113 kts | 28° |
| 2026-04-22 15:45 | 51.53813 | 0.68566 | 3195 ft | 114 kts | 28° |
| 2026-04-22 15:46 | 51.54587 | 0.68898 | 3037 ft | 116 kts | 28° |
| 2026-04-22 15:46 | 51.55360 | 0.69257 | 2886 ft | 115 kts | 27° |
| 2026-04-22 15:46 | 51.56124 | 0.69633 | 2731 ft | 115 kts | 28° |
| 2026-04-22 15:46 | 51.56959 | 0.69560 | 2566 ft | 133 kts | 347° |
| 2026-04-22 15:47 | 51.57630 | 0.68471 | 2408 ft | 145 kts | 302° |
| 2026-04-22 15:47 | 51.57758 | 0.66869 | 2263 ft | 150 kts | 261° |
| 2026-04-22 15:47 | 51.57532 | 0.65233 | 2105 ft | 149 kts | 250° |
| 2026-04-22 15:47 | 51.56928 | 0.63937 | 1975 ft | 143 kts | 214° |
| 2026-04-22 15:48 | 51.56216 | 0.62888 | 1955 ft | 137 kts | 222° |
| 2026-04-22 15:48 | 51.55637 | 0.61670 | 1955 ft | 137 kts | 226° |
| 2026-04-22 15:48 | 51.55098 | 0.60395 | 1954 ft | 138 kts | 230° |
| 2026-04-22 15:48 | 51.54584 | 0.59106 | 1932 ft | 137 kts | 234° |
| 2026-04-22 15:49 | 51.54098 | 0.57868 | 1964 ft | 135 kts | 236° |
| 2026-04-22 15:49 | 51.53634 | 0.56523 | 1954 ft | 139 kts | 240° |
| 2026-04-22 15:49 | 51.53207 | 0.55123 | 1968 ft | 140 kts | 242° |
| 2026-04-22 15:49 | 51.52794 | 0.53692 | 1967 ft | 142 kts | 242° |
| 2026-04-22 15:50 | 51.52387 | 0.52251 | 1961 ft | 140 kts | 242° |
| 2026-04-22 15:50 | 51.51980 | 0.50823 | 1934 ft | 142 kts | 242° |
| 2026-04-22 15:50 | 51.51579 | 0.49386 | 1953 ft | 139 kts | 243° |
| 2026-04-22 15:50 | 51.51178 | 0.47973 | 1985 ft | 139 kts | 234° |
| 2026-04-22 15:51 | 51.50443 | 0.47223 | 1958 ft | 123 kts | 169° |
| 2026-04-22 15:51 | 51.49723 | 0.47615 | 1976 ft | 102 kts | 127° |
| 2026-04-22 15:51 | 51.49454 | 0.48543 | 1987 ft | 88 kts | 88° |
| 2026-04-22 15:51 | 51.49560 | 0.49511 | 1987 ft | 87 kts | 77° |
| 2026-04-22 15:52 | 51.49720 | 0.50466 | 1963 ft | 89 kts | 74° |
| 2026-04-22 15:52 | 51.49911 | 0.51412 | 1937 ft | 90 kts | 72° |
| 2026-04-22 15:52 | 51.50081 | 0.52351 | 1950 ft | 87 kts | 79° |
| 2026-04-22 15:52 | 51.50199 | 0.53288 | 1945 ft | 85 kts | 79° |
| 2026-04-22 15:53 | 51.50333 | 0.54217 | 1923 ft | 86 kts | 73° |
| 2026-04-22 15:53 | 51.50635 | 0.55046 | 1934 ft | 86 kts | 60° |
| 2026-04-22 15:53 | 51.50970 | 0.55824 | 1923 ft | 85 kts | 62° |
| 2026-04-22 15:53 | 51.51286 | 0.56507 | 2002 ft | 70 kts | 59° |
| 2026-04-22 15:54 | 51.51572 | 0.57121 | 1958 ft | 70 kts | 60° |
| 2026-04-22 15:54 | 51.51848 | 0.57745 | 1925 ft | 68 kts | 62° |
| 2026-04-22 15:54 | 51.52130 | 0.58383 | 1836 ft | 70 kts | 60° |
| 2026-04-22 15:54 | 51.52405 | 0.59002 | 1758 ft | 69 kts | 60° |
| 2026-04-22 15:55 | 51.52684 | 0.59650 | 1668 ft | 72 kts | 58° |
| 2026-04-22 15:55 | 51.52964 | 0.60311 | 1559 ft | 71 kts | 60° |
| 2026-04-22 15:55 | 51.53243 | 0.60942 | 1413 ft | 69 kts | 59° |
| 2026-04-22 15:55 | 51.53527 | 0.61548 | 1258 ft | 67 kts | 60° |
| 2026-04-22 15:56 | 51.53811 | 0.62131 | 1147 ft | 66 kts | 57° |
| 2026-04-22 15:56 | 51.54090 | 0.62738 | 1080 ft | 68 kts | 56° |
| 2026-04-22 15:56 | 51.54353 | 0.63357 | 943 ft | 67 kts | 59° |
| 2026-04-22 15:56 | 51.54658 | 0.63971 | 854 ft | 72 kts | 59° |
| 2026-04-22 15:57 | 51.54911 | 0.64646 | 789 ft | 68 kts | 60° |
| 2026-04-22 15:57 | 51.55197 | 0.65289 | 659 ft | 73 kts | 54° |
| 2026-04-22 15:57 | 51.55480 | 0.65940 | 563 ft | 71 kts | 52° |
| 2026-04-22 15:57 | 51.55783 | 0.66561 | 411 ft | 69 kts | 52° |
| 2026-04-22 15:58 | 51.56053 | 0.67126 | 330 ft | 59 kts | 53° |
| 2026-04-22 15:58 | 51.56313 | 0.67683 | 169 ft | 59 kts | 73° |
| 2026-04-22 15:58 | 51.56539 | 0.68218 | 122 ft | 64 kts | 53° |
| 2026-04-22 15:58 | 51.56786 | 0.68758 | 52 ft | 51 kts | 55° |
| 2026-04-22 15:59 | 51.56895 | 0.69004 | 52 ft | 7 kts | 58° |
| 2026-04-22 15:59 | 51.56880 | 0.69055 | 52 ft | 7 kts | 141° |
| 2026-04-22 15:59 | 51.56836 | 0.69110 | 49 ft | 10 kts | 121° |
| 2026-04-22 15:59 | 51.56849 | 0.69187 | 49 ft | 6 kts | 56° |
| 2026-04-22 16:00 | 51.56870 | 0.69234 | 49 ft | 5 kts | 52° |
| 2026-04-22 16:00 | 51.56892 | 0.69288 | 49 ft | 7 kts | 75° |
| 2026-04-22 16:00 | 51.56899 | 0.69364 | 48 ft | 6 kts | 113° |
| 2026-04-22 16:00 | 51.56848 | 0.69359 | 48 ft | 11 kts | 229° |
| 2026-04-22 16:01 | 51.56823 | 0.69315 | 48 ft | 0 kts | 226° |